📊 Raw Sensor Data
Showing records 44926 to 44950 of 85,044 total
| ID | Distance (ft) | Battery V | Battery A | Int Temp (°F) | Int Humid (%) | Ext Temp (°F) | Solar V | RSSI | SNR | Time Stamp |
|---|---|---|---|---|---|---|---|---|---|---|
| 40131 | -- | 3.97 | 0 | 83 | 41 | 82 | 5.10 | -68 | 9 | 05/09/2025 10:45 AM |
| 40130 | -- | 4.03 | 0 | 81 | 41 | 79 | 5.10 | -68 | 8 | 05/09/2025 10:30 AM |
| 40129 | 16.4 | 3.98 | 0 | 79 | 40 | 79 | 5.10 | -70 | 8 | 05/09/2025 10:15 AM |
| 40128 | 16.4 | 3.97 | 0 | 77 | 41 | 77 | 5.10 | -69 | 8 | 05/09/2025 10:00 AM |
| 40127 | -- | 3.97 | 0 | 75 | 41 | 75 | 5.10 | -69 | 8 | 05/09/2025 09:45 AM |
| 40126 | 16.4 | 3.97 | 0 | 73 | 42 | 72 | 5.10 | -69 | 8 | 05/09/2025 09:30 AM |
| 40125 | -- | 4.12 | 0 | 73 | 42 | 73 | 5.10 | -68 | 9 | 05/09/2025 09:15 AM |
| 40124 | 16.4 | 3.99 | 5 | 72 | 42 | 75 | 5.10 | -69 | 7 | 05/09/2025 09:00 AM |
| 40123 | 16.4 | 3.96 | 0 | 71 | 41 | 71 | 5.10 | -68 | 6 | 05/09/2025 08:45 AM |
| 40122 | 16.4 | 3.97 | 0 | 69 | 41 | 77 | 5.10 | -69 | 8 | 05/09/2025 08:30 AM |
| 40121 | 16.4 | 3.97 | 5 | 68 | 41 | 75 | 5.10 | -68 | 8 | 05/09/2025 08:15 AM |
| 40120 | 16.4 | 3.97 | 5 | 66 | 40 | 77 | 5.10 | -68 | 8 | 05/09/2025 08:00 AM |
| 40119 | -- | 3.97 | 0 | 63 | 40 | 73 | 5.10 | -68 | 9 | 05/09/2025 07:45 AM |
| 40118 | 16.3 | 4.05 | 53 | 60 | 40 | 63 | 4.50 | -69 | 8 | 05/09/2025 07:30 AM |
| 40117 | -- | 3.98 | 5 | 57 | 40 | 62 | 4.50 | -68 | 8 | 05/09/2025 07:15 AM |
| 40116 | 16.3 | 3.99 | 10 | 54 | 40 | 66 | 4.50 | -68 | 7 | 05/09/2025 07:00 AM |
| 40115 | -- | 3.97 | 0 | 51 | 41 | 61 | 4.50 | -69 | 8 | 05/09/2025 06:45 AM |
| 40114 | 16.1 | 3.91 | 0 | 49 | 42 | 57 | 4.50 | -69 | 8 | 05/09/2025 06:31 AM |
| 40113 | 16.0 | 3.90 | -35 | 48 | 42 | 51 | 4.50 | -68 | 8 | 05/09/2025 06:15 AM |
| 40112 | -- | 3.89 | -10 | 47 | 43 | 49 | 3.20 | -68 | 8 | 05/09/2025 06:00 AM |
| 40111 | -- | 3.90 | -5 | 48 | 43 | 49 | 0.50 | -69 | 7 | 05/09/2025 05:45 AM |
| 40110 | -- | 3.96 | -5 | 48 | 43 | 50 | 0.00 | -69 | 8 | 05/09/2025 05:30 AM |
| 40109 | -- | 3.90 | -5 | 49 | 43 | 50 | 0.00 | -69 | 8 | 05/09/2025 05:15 AM |
| 40108 | -- | 3.90 | -5 | 50 | 42 | 52 | 0.00 | -69 | 8 | 05/09/2025 05:01 AM |
| 40107 | 16.0 | 3.90 | -5 | 50 | 42 | 53 | 0.10 | -68 | 8 | 05/09/2025 04:45 AM |